Time;durP1;ratioP1;P1;durP2;ratioP2;P2;SDS_P1;SDS_P2;PMS_P1;PMS_P2;Temp;Humidity;BMP_temperature;BMP_pressure;BME280_temperature;BME280_humidity;BME280_pressure;Samples;Min_cycle;Max_cycle;Signal;HPM_P1;HPM_P2
2022/12/17 13:06:43;;;;;;;28.73;17.55;;;-1.80;71.50;;;;;;5052061;28;20309;-69
2022/12/17 13:09:33;;;;;;;27.73;16.60;;;-1.80;71.50;;;;;;5053169;28;20215;-68
2022/12/17 13:12:24;;;;;;;31.60;16.88;;;-1.80;71.50;;;;;;5056779;28;20204;-69
2022/12/17 13:14:58;;;;;;;29.67;17.75;;;-1.80;71.50;;;;;;5057662;28;20257;-69
2022/12/17 13:17:31;;;;;;;38.20;18.30;;;-1.70;71.60;;;;;;5057616;28;20192;-68
2022/12/17 13:20:02;;;;;;;31.10;17.42;;;-1.70;71.40;;;;;;5057202;28;20224;-68
2022/12/17 13:22:33;;;;;;;26.48;16.55;;;-1.80;71.20;;;;;;5060541;28;21056;-69
2022/12/17 13:25:16;;;;;;;33.63;18.70;;;-1.90;71.10;;;;;;5058189;28;20204;-68
2022/12/17 13:27:45;;;;;;;27.50;16.80;;;-1.90;71.20;;;;;;5058429;28;20281;-68
2022/12/17 13:30:23;;;;;;;32.55;17.92;;;-2.00;71.20;;;;;;5058540;28;20269;-66
2022/12/17 13:33:01;;;;;;;29.45;18.80;;;-2.00;71.40;;;;;;5060965;28;20708;-66
2022/12/17 13:35:38;;;;;;;28.70;16.70;;;-2.10;71.40;;;;;;5058404;28;20931;-67
2022/12/17 13:38:17;;;;;;;32.25;19.60;;;-2.10;71.60;;;;;;5057647;28;20252;-68
2022/12/17 13:40:49;;;;;;;38.88;19.00;;;-2.10;71.70;;;;;;5056181;28;20211;-68
2022/12/17 13:43:20;;;;;;;93.35;39.30;;;-2.10;71.70;;;;;;5055705;28;20273;-68
2022/12/17 13:45:50;;;;;;;137.63;49.78;;;-2.10;71.80;;;;;;5061109;28;20208;-68
2022/12/17 13:48:24;;;;;;;128.85;42.15;;;-2.10;71.70;;;;;;5054908;28;20228;-69
2022/12/17 13:50:58;;;;;;;84.97;31.17;;;-2.10;71.80;;;;;;5053929;28;20263;-68
2022/12/17 13:53:28;;;;;;;49.25;27.40;;;-2.10;71.80;;;;;;5055430;28;20657;-68
2022/12/17 13:55:57;;;;;;;49.25;23.42;;;-2.10;71.90;;;;;;5058697;28;20994;-68
2022/12/17 13:58:27;;;;;;;38.78;21.65;;;-2.10;71.90;;;;;;5056789;28;20665;-68
2022/12/17 14:01:05;;;;;;;34.50;20.23;;;-2.10;71.90;;;;;;5058546;28;20203;-68
2022/12/17 14:03:33;;;;;;;36.22;20.10;;;-2.10;72.00;;;;;;5059542;28;20210;-68
2022/12/17 14:06:23;;;;;;;38.05;21.10;;;-2.10;72.00;;;;;;5061542;28;20231;-67
2022/12/17 14:08:55;;;;;;;41.38;19.10;;;-2.10;72.10;;;;;;5051298;28;20752;-68
2022/12/17 14:14:17;;;;;;;61.45;27.42;;;-2.10;72.30;;;;;;5053342;28;20274;-68
2022/12/17 14:16:45;;;;;;;39.60;23.83;;;-2.10;72.30;;;;;;5059824;28;20273;-68
2022/12/17 14:19:18;;;;;;;57.80;24.48;;;-2.10;72.20;;;;;;5058029;28;20293;-68
2022/12/17 14:21:46;;;;;;;65.60;25.67;;;-2.10;72.30;;;;;;5055222;28;20641;-68
2022/12/17 14:24:18;;;;;;;51.03;24.48;;;-2.10;72.30;;;;;;5055236;28;20193;-69
2022/12/17 14:26:50;;;;;;;42.28;22.25;;;-2.10;72.30;;;;;;5054493;28;20705;-69
2022/12/17 14:29:23;;;;;;;42.05;20.58;;;-2.00;72.70;;;;;;5058728;28;20227;-69
2022/12/17 14:31:53;;;;;;;45.35;22.35;;;-1.90;73.00;;;;;;5052116;28;20218;-69
2022/12/17 14:34:22;;;;;;;56.72;26.15;;;-1.70;73.10;;;;;;5051760;28;20200;-69
2022/12/17 14:36:55;;;;;;;50.70;25.80;;;-1.60;73.10;;;;;;5054100;28;20655;-66
2022/12/17 14:39:28;;;;;;;52.75;27.90;;;-1.50;73.00;;;;;;5057089;28;20772;-64
2022/12/17 14:44:51;;;;;;;50.03;31.10;;;-1.50;72.70;;;;;;5057214;28;20204;-66
2022/12/17 14:47:23;;;;;;;95.78;45.72;;;-1.60;72.70;;;;;;5058468;28;21032;-65
2022/12/17 14:50:05;;;;;;;67.97;36.35;;;-1.60;72.70;;;;;;5057394;28;20234;-65
2022/12/17 14:52:36;;;;;;;62.72;34.83;;;-1.60;72.80;;;;;;5055462;28;20680;-65
2022/12/17 14:55:36;;;;;;;62.70;32.17;;;-1.60;72.70;;;;;;5055007;28;20637;-66
2022/12/17 14:58:19;;;;;;;57.53;32.67;;;-1.60;72.70;;;;;;5049014;28;20200;-65
2022/12/17 15:00:51;;;;;;;50.45;31.92;;;-1.60;72.60;;;;;;5058568;28;20818;-67
2022/12/17 15:03:22;;;;;;;60.97;34.60;;;-1.70;72.60;;;;;;5055786;28;20204;-67
2022/12/17 15:05:54;;;;;;;55.35;29.35;;;-1.70;72.50;;;;;;5052993;28;20449;-64
2022/12/17 15:08:23;;;;;;;54.28;28.65;;;-1.70;72.50;;;;;;5053031;28;20622;-67
2022/12/17 15:10:52;;;;;;;51.00;28.85;;;-1.70;72.50;;;;;;5053166;28;20273;-67
2022/12/17 15:13:20;;;;;;;46.92;25.65;;;-1.80;72.20;;;;;;5052409;28;20782;-66
2022/12/17 15:15:48;;;;;;;39.95;22.80;;;-1.90;71.80;;;;;;5048018;28;20205;-65
2022/12/17 15:18:16;;;;;;;51.47;27.17;;;-2.00;71.70;;;;;;5053401;28;20213;-66
2022/12/17 15:20:44;;;;;;;53.15;27.85;;;-2.10;71.80;;;;;;5055908;28;20738;-67
2022/12/17 15:23:16;;;;;;;76.00;42.95;;;-2.20;71.70;;;;;;5053495;28;20204;-66
2022/12/17 15:25:44;;;;;;;66.43;37.08;;;-2.40;71.70;;;;;;5052314;28;20202;-66
2022/12/17 15:28:16;;;;;;;57.67;36.03;;;-2.40;71.80;;;;;;5054477;28;20224;-66
2022/12/17 15:30:44;;;;;;;52.63;32.50;;;-2.50;71.90;;;;;;5055346;28;20868;-66
2022/12/17 15:33:12;;;;;;;47.75;27.40;;;-2.60;71.90;;;;;;5057064;28;20849;-66
2022/12/17 15:35:41;;;;;;;41.42;24.85;;;-2.60;71.90;;;;;;5050983;28;20232;-65
2022/12/17 15:38:11;;;;;;;35.78;22.85;;;-2.70;71.80;;;;;;5053242;28;20766;-66
2022/12/17 15:40:39;;;;;;;43.65;23.48;;;-2.80;71.90;;;;;;5052072;28;20689;-66
2022/12/17 15:43:11;;;;;;;48.53;24.90;;;-2.80;71.80;;;;;;5051609;28;20239;-65
2022/12/17 15:45:43;;;;;;;35.70;21.98;;;-2.80;71.90;;;;;;5049851;28;20207;-65
2022/12/17 15:48:13;;;;;;;38.38;21.67;;;-2.90;72.10;;;;;;5048629;28;20224;-66
2022/12/17 15:50:41;;;;;;;37.45;23.73;;;-2.90;72.10;;;;;;5052520;28;20254;-66
2022/12/17 15:53:09;;;;;;;39.70;23.20;;;-2.90;72.10;;;;;;5048819;28;20204;-66
2022/12/17 15:55:37;;;;;;;31.85;19.50;;;-2.90;72.10;;;;;;5052583;28;20273;-65
2022/12/17 15:58:37;;;;;;;31.88;19.30;;;-2.90;72.10;;;;;;5183365;27;20637;-65
2022/12/17 16:01:06;;;;;;;45.38;26.25;;;-2.90;72.10;;;;;;5144030;27;20604;-65
2022/12/17 16:03:34;;;;;;;44.05;27.48;;;-2.90;72.20;;;;;;5149290;27;20585;-65
2022/12/17 16:06:03;;;;;;;89.65;56.17;;;-2.90;72.30;;;;;;5150380;27;20201;-65
2022/12/17 16:08:31;;;;;;;80.15;48.03;;;-2.90;72.10;;;;;;5132339;27;20877;-65
2022/12/17 16:10:58;;;;;;;87.95;44.58;;;-2.90;71.80;;;;;;5146275;27;20269;-65
2022/12/17 16:13:27;;;;;;;91.82;51.15;;;-3.00;71.60;;;;;;5137622;27;20284;-65
2022/12/17 16:15:57;;;;;;;138.48;71.28;;;-3.10;71.70;;;;;;5147100;27;20209;-65
2022/12/17 16:18:31;;;;;;;97.80;52.83;;;-3.10;71.90;;;;;;5149581;27;20339;-64
2022/12/17 16:21:03;;;;;;;129.32;70.43;;;-3.10;71.90;;;;;;5150577;27;20874;-65
2022/12/17 16:23:31;;;;;;;113.50;63.50;;;-3.20;71.80;;;;;;5147064;27;20666;-65
2022/12/17 16:26:00;;;;;;;103.85;56.90;;;-3.20;71.60;;;;;;5144596;27;20197;-64
2022/12/17 16:28:29;;;;;;;71.03;42.40;;;-3.30;71.60;;;;;;5152194;27;20241;-64
2022/12/17 16:31:00;;;;;;;62.63;38.80;;;-3.30;71.80;;;;;;5146732;27;20257;-66
2022/12/17 16:33:32;;;;;;;72.70;38.70;;;-3.40;71.70;;;;;;5150349;27;20210;-64
2022/12/17 16:36:04;;;;;;;77.05;44.05;;;-3.40;71.40;;;;;;5146103;27;20252;-65
2022/12/17 16:38:32;;;;;;;77.68;41.63;;;-3.50;71.10;;;;;;5128106;27;20639;-65
2022/12/17 16:41:02;;;;;;;74.53;40.85;;;-3.70;71.30;;;;;;5150517;27;20618;-66
2022/12/17 16:43:34;;;;;;;74.20;42.72;;;-3.70;71.40;;;;;;5149180;27;20200;-66
2022/12/17 16:46:03;;;;;;;56.45;33.08;;;-3.80;71.40;;;;;;5152478;27;20213;-66
2022/12/17 16:48:39;;;;;;;66.07;36.47;;;-3.80;71.50;;;;;;5144200;27;20213;-64
2022/12/17 16:51:15;;;;;;;69.47;38.83;;;-3.80;71.50;;;;;;5148911;27;20235;-66
2022/12/17 16:53:50;;;;;;;49.67;27.60;;;-3.80;71.60;;;;;;5147468;27;20258;-66
2022/12/17 16:56:20;;;;;;;42.15;28.15;;;-3.80;71.60;;;;;;5148717;27;20621;-67
2022/12/17 16:58:48;;;;;;;54.40;29.17;;;-3.90;71.50;;;;;;5149008;27;20650;-66
2022/12/17 17:01:20;;;;;;;58.97;35.10;;;-3.90;71.40;;;;;;5149111;27;20276;-66
2022/12/17 17:03:48;;;;;;;60.70;33.50;;;-3.90;71.40;;;;;;5149270;27;20674;-66
2022/12/17 17:06:17;;;;;;;48.17;29.33;;;-3.90;71.40;;;;;;5152287;27;20577;-67
2022/12/17 17:08:45;;;;;;;54.88;31.38;;;-3.90;71.40;;;;;;5144023;27;20285;-67
2022/12/17 17:11:15;;;;;;;53.72;29.70;;;-4.00;71.30;;;;;;5130492;27;20233;-66
2022/12/17 17:13:43;;;;;;;50.42;28.88;;;-4.00;71.30;;;;;;5138213;27;20533;-66
2022/12/17 17:16:12;;;;;;;56.53;29.73;;;-4.00;71.30;;;;;;5140684;27;20674;-66
2022/12/17 17:18:44;;;;;;;54.15;32.22;;;-4.00;71.30;;;;;;5142993;27;20256;-66
2022/12/17 17:21:22;;;;;;;53.65;28.73;;;-4.00;71.40;;;;;;5131696;27;20194;-67
2022/12/17 17:23:52;;;;;;;48.25;27.33;;;-4.00;71.40;;;;;;5133190;27;20209;-66
2022/12/17 17:26:24;;;;;;;46.65;26.42;;;-4.00;71.40;;;;;;5135386;27;20201;-66
2022/12/17 17:28:53;;;;;;;55.83;28.30;;;-4.00;71.30;;;;;;5133178;27;20218;-66
2022/12/17 17:31:21;;;;;;;60.60;32.00;;;-4.10;71.20;;;;;;5133562;27;20210;-67
2022/12/17 17:33:58;;;;;;;53.28;30.42;;;-4.10;71.20;;;;;;5129462;27;20205;-66
2022/12/17 17:36:29;;;;;;;59.38;28.70;;;-4.10;71.30;;;;;;5131116;27;20270;-66
2022/12/17 17:38:59;;;;;;;57.10;30.70;;;-4.10;71.30;;;;;;5147513;27;20434;-66
2022/12/17 17:41:29;;;;;;;57.42;31.90;;;-4.10;71.20;;;;;;5130576;27;20202;-66
2022/12/17 17:43:59;;;;;;;80.00;35.30;;;-4.10;71.10;;;;;;5131794;27;20561;-65
2022/12/17 17:46:29;;;;;;;56.92;30.35;;;-4.10;71.10;;;;;;5131393;27;20262;-66
2022/12/17 17:49:00;;;;;;;58.00;28.85;;;-4.10;71.20;;;;;;5134312;27;20221;-66
2022/12/17 17:51:31;;;;;;;60.88;29.45;;;-4.20;71.00;;;;;;5136729;27;20202;-66
2022/12/17 17:54:19;;;;;;;47.33;27.67;;;-4.20;70.90;;;;;;5137489;27;20262;-67
2022/12/17 17:56:47;;;;;;;52.25;26.73;;;-4.20;71.00;;;;;;5131377;27;20263;-66
2022/12/17 17:59:18;;;;;;;55.90;30.52;;;-4.20;70.80;;;;;;5131370;27;20230;-66
2022/12/17 18:01:48;;;;;;;71.55;32.85;;;-4.30;70.60;;;;;;5133931;27;20209;-66
2022/12/17 18:04:19;;;;;;;67.53;33.47;;;-4.40;70.70;;;;;;5149633;27;20230;-66
2022/12/17 18:06:48;;;;;;;63.08;30.73;;;-4.40;70.80;;;;;;5135884;27;20206;-66
2022/12/17 18:09:36;;;;;;;61.05;29.92;;;-4.40;70.90;;;;;;5134173;27;20321;-66
2022/12/17 18:13:53;;;;;;;58.80;27.00;;;-4.50;70.80;;;;;;5136388;27;20218;-65
2022/12/17 18:14:53;;;;;;;63.35;31.73;;;-4.50;70.90;;;;;;5124438;27;20289;-65
2022/12/17 18:17:41;;;;;;;54.05;26.35;;;-4.50;70.70;;;;;;5135567;27;20377;-66
2022/12/17 18:20:11;;;;;;;48.15;25.92;;;-4.60;70.60;;;;;;5131800;27;20310;-66
2022/12/17 18:22:39;;;;;;;76.75;32.65;;;-4.70;70.60;;;;;;5134700;27;20204;-66
2022/12/17 18:25:08;;;;;;;65.68;28.98;;;-4.70;70.70;;;;;;5138778;27;20192;-65
2022/12/17 18:27:36;;;;;;;170.65;54.15;;;-4.70;70.60;;;;;;5134112;27;20246;-66
2022/12/17 18:30:04;;;;;;;94.25;44.95;;;-4.80;70.70;;;;;;5134408;27;20726;-67
2022/12/17 18:32:32;;;;;;;88.72;41.38;;;-4.80;70.70;;;;;;5135994;27;20204;-66
2022/12/17 18:35:00;;;;;;;71.22;33.70;;;-4.80;70.70;;;;;;5137799;27;20225;-66
2022/12/17 18:37:29;;;;;;;78.65;32.58;;;-4.80;70.60;;;;;;5134682;27;20213;-67
2022/12/17 18:39:57;;;;;;;51.25;28.48;;;-4.80;70.60;;;;;;5135812;27;20285;-64
2022/12/17 18:45:11;;;;;;;58.40;29.42;;;-5.00;70.30;;;;;;5135422;27;20254;-65
2022/12/17 18:47:41;;;;;;;66.80;34.10;;;-5.00;70.20;;;;;;5137527;27;20274;-69
2022/12/17 18:50:10;;;;;;;67.75;36.33;;;-5.10;70.20;;;;;;5134456;27;20217;-66
2022/12/17 18:52:39;;;;;;;79.85;42.03;;;-5.20;70.30;;;;;;5133784;27;20197;-66
2022/12/17 18:55:10;;;;;;;68.50;31.55;;;-5.20;70.40;;;;;;5126730;27;20214;-66
2022/12/17 18:57:38;;;;;;;53.63;28.17;;;-5.20;70.40;;;;;;5133032;27;20294;-66
2022/12/17 19:00:09;;;;;;;54.55;28.90;;;-5.30;70.30;;;;;;5114595;27;20233;-66
2022/12/17 19:02:37;;;;;;;165.25;65.50;;;-5.30;70.40;;;;;;5133494;27;20205;-65
2022/12/17 19:05:05;;;;;;;140.43;55.33;;;-5.30;70.40;;;;;;5130310;27;20208;-66
2022/12/17 19:07:33;;;;;;;172.27;69.90;;;-5.40;70.40;;;;;;5132461;27;20214;-65
2022/12/17 19:10:03;;;;;;;108.78;54.17;;;-5.40;70.50;;;;;;5133414;27;20765;-65
2022/12/17 19:12:31;;;;;;;107.13;50.42;;;-5.40;70.50;;;;;;5131804;27;20880;-66
2022/12/17 19:14:59;;;;;;;87.60;40.53;;;-5.40;70.60;;;;;;5130265;27;20193;-67
2022/12/17 19:17:27;;;;;;;66.00;30.98;;;-5.40;70.60;;;;;;5132606;27;20216;-66
2022/12/17 19:19:55;;;;;;;63.83;29.92;;;-5.30;70.70;;;;;;5133269;27;20741;-66
2022/12/17 19:22:23;;;;;;;92.60;36.85;;;-5.30;70.50;;;;;;5135761;27;20201;-66
2022/12/17 19:24:51;;;;;;;113.55;40.13;;;-5.30;70.40;;;;;;5135025;27;20270;-66
2022/12/17 19:27:20;;;;;;;69.70;33.40;;;-5.40;70.30;;;;;;5132482;27;20266;-67
2022/12/17 19:29:56;;;;;;;71.65;32.03;;;-5.40;70.30;;;;;;5130799;27;20218;-67
2022/12/17 19:32:24;;;;;;;83.22;34.40;;;-5.50;70.20;;;;;;5131931;27;20220;-66
2022/12/17 19:34:52;;;;;;;68.68;34.88;;;-5.50;70.40;;;;;;5137720;27;20247;-66
2022/12/17 19:37:20;;;;;;;90.15;37.13;;;-5.40;70.50;;;;;;5136705;27;20206;-65
2022/12/17 19:39:48;;;;;;;95.00;38.45;;;-5.40;70.30;;;;;;5137011;27;20286;-66
2022/12/17 19:42:24;;;;;;;90.40;39.70;;;-5.50;70.20;;;;;;5135868;27;20201;-66
2022/12/17 19:44:54;;;;;;;74.25;35.30;;;-5.50;70.10;;;;;;5133588;27;20188;-66
2022/12/17 19:47:23;;;;;;;54.85;31.58;;;-5.60;70.00;;;;;;5136057;27;20201;-66
2022/12/17 19:49:51;;;;;;;59.47;30.13;;;-5.70;70.00;;;;;;5131585;27;20296;-67
2022/12/17 19:52:19;;;;;;;53.70;27.05;;;-5.70;70.10;;;;;;5135529;27;20209;-66
2022/12/17 19:54:48;;;;;;;51.80;28.85;;;-5.70;70.20;;;;;;5138681;27;20821;-66
2022/12/17 19:57:16;;;;;;;50.08;28.33;;;-5.70;70.10;;;;;;5138690;27;20745;-66
2022/12/17 19:59:44;;;;;;;49.00;28.48;;;-5.70;70.00;;;;;;5137998;27;20277;-65
2022/12/17 20:02:15;;;;;;;47.42;28.10;;;-5.80;70.00;;;;;;5133431;27;20837;-65
2022/12/17 20:04:44;;;;;;;51.10;26.65;;;-5.80;70.00;;;;;;5131325;27;20197;-65
2022/12/17 20:07:12;;;;;;;52.03;26.48;;;-5.80;70.00;;;;;;5130438;27;20223;-66
2022/12/17 20:09:42;;;;;;;52.58;27.30;;;-5.80;70.00;;;;;;5132382;27;20689;-65
2022/12/17 20:12:11;;;;;;;51.92;27.70;;;-5.90;70.10;;;;;;5136323;27;20197;-64
2022/12/17 20:14:39;;;;;;;56.70;29.63;;;-5.90;70.00;;;;;;5132529;27;20233;-66
2022/12/17 20:17:07;;;;;;;61.78;32.08;;;-6.00;69.90;;;;;;5133474;27;20650;-66
2022/12/17 20:19:37;;;;;;;49.45;23.83;;;-6.00;69.90;;;;;;5135137;27;20860;-67
2022/12/17 20:22:06;;;;;;;41.65;22.42;;;-6.00;70.00;;;;;;5133198;27;20201;-63
2022/12/17 20:24:36;;;;;;;54.10;23.77;;;-6.00;69.80;;;;;;5133334;27;20190;-64
2022/12/17 20:27:04;;;;;;;49.53;25.77;;;-6.00;69.90;;;;;;5133982;27;20574;-64
2022/12/17 20:29:32;;;;;;;64.18;30.73;;;-6.00;69.90;;;;;;5136513;27;20813;-65
2022/12/17 20:32:01;;;;;;;64.82;30.08;;;-6.10;69.90;;;;;;5119499;27;20205;-64
2022/12/17 20:34:30;;;;;;;56.25;28.50;;;-6.10;69.80;;;;;;5134902;27;20221;-65
2022/12/17 20:36:59;;;;;;;58.63;29.95;;;-6.10;69.90;;;;;;5133959;27;20202;-64
2022/12/17 20:39:27;;;;;;;61.92;28.08;;;-6.10;70.10;;;;;;5135888;27;20815;-65
2022/12/17 20:41:56;;;;;;;51.83;27.42;;;-6.10;70.20;;;;;;5132616;27;20208;-66
2022/12/17 20:44:24;;;;;;;53.17;28.70;;;-6.00;70.40;;;;;;5121660;27;20575;-64
2022/12/17 20:46:52;;;;;;;68.95;32.55;;;-5.90;70.50;;;;;;5140183;27;20729;-64
2022/12/17 20:49:20;;;;;;;72.70;36.25;;;-5.80;70.20;;;;;;5139043;27;20222;-66
2022/12/17 20:51:48;;;;;;;73.90;38.83;;;-5.90;69.90;;;;;;5138561;27;20209;-64
2022/12/17 20:54:17;;;;;;;63.85;32.88;;;-5.90;69.80;;;;;;5138156;27;20602;-66
2022/12/17 20:56:45;;;;;;;64.18;33.90;;;-5.90;69.80;;;;;;5134353;27;20213;-64
2022/12/17 20:59:15;;;;;;;56.50;27.77;;;-6.00;69.80;;;;;;5136896;27;20262;-64
2022/12/17 21:01:43;;;;;;;56.20;29.42;;;-6.00;69.60;;;;;;5140835;27;20254;-65
2022/12/17 21:04:12;;;;;;;67.07;33.85;;;-6.10;69.40;;;;;;5141614;27;20221;-64
2022/12/17 21:06:42;;;;;;;64.07;34.30;;;-6.10;69.50;;;;;;5139789;27;20837;-65
2022/12/17 21:09:10;;;;;;;53.55;30.63;;;-6.20;69.30;;;;;;5136472;27;20221;-65
2022/12/17 21:11:41;;;;;;;56.97;27.90;;;-6.20;69.30;;;;;;5140574;27;20599;-64
2022/12/17 21:14:12;;;;;;;49.72;25.98;;;-6.30;69.50;;;;;;5135920;27;20224;-64
2022/12/17 21:16:41;;;;;;;77.13;33.50;;;-6.30;69.60;;;;;;5136550;27;20258;-64
2022/12/17 21:19:12;;;;;;;73.03;34.80;;;-6.30;69.60;;;;;;5139965;27;20225;-65
2022/12/17 21:21:40;;;;;;;67.07;34.33;;;-6.30;69.70;;;;;;5141396;27;20324;-67
2022/12/17 21:24:09;;;;;;;63.97;33.40;;;-6.30;69.70;;;;;;5138604;27;20884;-63
2022/12/17 21:26:41;;;;;;;61.97;31.52;;;-6.30;69.70;;;;;;5133726;27;20662;-62
2022/12/17 21:29:10;;;;;;;66.05;33.42;;;-6.30;69.70;;;;;;5132479;27;20293;-65
2022/12/17 21:31:39;;;;;;;56.13;32.33;;;-6.40;69.60;;;;;;5135011;27;20194;-65
2022/12/17 21:34:11;;;;;;;63.08;32.00;;;-6.40;69.50;;;;;;5134170;27;20245;-62
2022/12/17 21:36:40;;;;;;;64.40;32.95;;;-6.40;69.40;;;;;;5130668;27;20263;-64
2022/12/17 21:39:09;;;;;;;69.85;32.95;;;-6.50;69.30;;;;;;5121471;27;20230;-62
2022/12/17 21:41:41;;;;;;;64.43;30.52;;;-6.60;69.10;;;;;;5133055;27;20209;-61
2022/12/17 21:44:13;;;;;;;70.55;33.70;;;-6.70;69.30;;;;;;5131262;27;20242;-63
2022/12/17 21:46:42;;;;;;;61.00;31.88;;;-6.70;69.30;;;;;;5118417;27;20577;-66
2022/12/17 21:49:17;;;;;;;52.63;26.40;;;-6.70;69.40;;;;;;5135803;27;20209;-66
2022/12/17 21:51:45;;;;;;;62.22;30.38;;;-6.70;69.50;;;;;;5134741;27;20197;-65
2022/12/17 21:54:13;;;;;;;53.45;28.25;;;-6.70;69.50;;;;;;5140197;27;20209;-67
2022/12/17 21:56:48;;;;;;;58.95;30.20;;;-6.70;69.40;;;;;;5139374;27;20284;-66
2022/12/17 21:59:16;;;;;;;74.20;34.58;;;-6.70;69.30;;;;;;5134167;27;20217;-65
2022/12/17 22:01:44;;;;;;;61.78;31.38;;;-6.80;69.30;;;;;;5135287;27;20255;-66
2022/12/17 22:04:13;;;;;;;53.58;28.17;;;-6.80;69.30;;;;;;5132578;27;20194;-67
2022/12/17 22:06:42;;;;;;;47.58;23.83;;;-6.90;69.30;;;;;;5133621;27;20206;-66
2022/12/17 22:09:27;;;;;;;60.28;28.88;;;-6.90;69.40;;;;;;5134724;27;20237;-66
2022/12/17 22:15:01;;;;;;;68.65;34.10;;;-6.90;69.50;;;;;;5133053;27;20202;-65
2022/12/17 22:17:30;;;;;;;61.30;29.63;;;-6.90;69.60;;;;;;5150630;27;20300;-66
2022/12/17 22:19:58;;;;;;;67.88;28.80;;;-6.80;69.60;;;;;;5136835;27;20228;-65
2022/12/17 22:22:26;;;;;;;58.38;30.25;;;-6.80;69.80;;;;;;5130887;27;20719;-66
2022/12/17 22:24:54;;;;;;;58.55;30.80;;;-6.70;70.00;;;;;;5132622;27;20257;-65
2022/12/17 22:27:24;;;;;;;65.72;27.42;;;-6.60;70.10;;;;;;5132568;27;20213;-64
2022/12/17 22:35:24;;;;;;;54.78;28.30;;;-6.30;70.10;;;;;;5133991;27;20206;-65
2022/12/17 22:38:12;;;;;;;59.35;28.63;;;-6.20;70.00;;;;;;5133969;27;20209;-65
2022/12/17 22:41:05;;;;;;;53.40;27.02;;;-6.20;70.00;;;;;;5133176;27;20301;-65
2022/12/17 22:43:54;;;;;;;67.88;27.05;;;-6.20;69.50;;;;;;5134446;27;20206;-64
2022/12/17 22:46:42;;;;;;;47.17;25.13;;;-6.30;69.50;;;;;;5132377;27;20262;-65
2022/12/17 22:49:10;;;;;;;52.10;26.00;;;-6.30;69.60;;;;;;5134232;27;20362;-65
2022/12/17 22:51:40;;;;;;;56.05;27.52;;;-6.30;69.60;;;;;;5135259;27;20204;-65
2022/12/17 22:54:12;;;;;;;44.58;25.83;;;-6.30;69.60;;;;;;5139135;27;20197;-64
2022/12/17 22:56:42;;;;;;;45.53;22.83;;;-6.30;69.70;;;;;;5136600;27;20229;-66
2022/12/17 22:59:32;;;;;;;42.80;23.17;;;-6.20;69.60;;;;;;5135902;27;20277;-62
2022/12/17 23:02:00;;;;;;;50.38;26.65;;;-6.20;69.70;;;;;;5123733;27;20265;-66
2022/12/17 23:04:28;;;;;;;58.67;25.67;;;-6.20;69.60;;;;;;5133146;27;20262;-65
2022/12/17 23:06:56;;;;;;;51.67;28.60;;;-6.20;69.20;;;;;;5130930;27;20202;-65
2022/12/17 23:09:24;;;;;;;53.85;26.10;;;-6.30;69.10;;;;;;5135942;27;20281;-64
2022/12/17 23:11:52;;;;;;;74.43;34.88;;;-6.40;69.10;;;;;;5136465;27;20197;-65
2022/12/17 23:14:20;;;;;;;98.03;43.80;;;-6.40;69.10;;;;;;5135492;27;20201;-63
2022/12/17 23:16:49;;;;;;;109.38;43.88;;;-6.50;69.10;;;;;;5122285;27;21037;-66
2022/12/17 23:19:17;;;;;;;65.18;29.80;;;-6.50;69.10;;;;;;5130787;27;20283;-66
2022/12/17 23:21:46;;;;;;;55.42;29.67;;;-6.50;69.10;;;;;;5128317;27;20960;-64
2022/12/17 23:24:14;;;;;;;56.47;30.67;;;-6.50;69.10;;;;;;5135901;27;20208;-65
2022/12/17 23:26:41;;;;;;;62.78;28.45;;;-6.60;68.90;;;;;;5137991;27;20293;-65
2022/12/17 23:29:14;;;;;;;63.78;32.50;;;-6.60;69.10;;;;;;5135755;27;20726;-66
2022/12/17 23:31:47;;;;;;;50.28;28.98;;;-6.60;69.40;;;;;;5127995;27;20194;-64
2022/12/17 23:34:16;;;;;;;48.40;27.25;;;-6.60;69.50;;;;;;5131843;27;20225;-65
2022/12/17 23:36:44;;;;;;;60.28;29.88;;;-6.50;69.40;;;;;;5132144;27;20224;-64
2022/12/17 23:39:12;;;;;;;56.65;28.23;;;-6.50;69.30;;;;;;5128784;27;20282;-66
2022/12/17 23:41:40;;;;;;;56.72;29.23;;;-6.60;69.20;;;;;;5133137;27;20201;-66
2022/12/17 23:44:08;;;;;;;49.30;26.48;;;-6.50;69.30;;;;;;5128974;27;20202;-65
2022/12/17 23:46:36;;;;;;;57.92;25.13;;;-6.50;69.40;;;;;;5133027;27;20690;-65
2022/12/17 23:49:05;;;;;;;54.88;25.20;;;-6.50;69.30;;;;;;5134649;27;20219;-66
2022/12/17 23:51:34;;;;;;;55.35;28.35;;;-6.60;68.90;;;;;;5127068;27;20236;-63
2022/12/17 23:54:02;;;;;;;55.10;28.80;;;-6.60;69.10;;;;;;5111365;27;20257;-64
2022/12/17 23:56:32;;;;;;;54.45;26.63;;;-6.60;69.30;;;;;;5135794;27;20218;-64
2022/12/17 23:59:01;;;;;;;56.95;26.40;;;-6.60;69.40;;;;;;5137876;27;20232;-66
